Latest Weather Observations for Thredbo Top Station

IDN60901

Issued at 11:25 pm EST Thursday 31 July 2014 (issued every 10 minutes, with the page automatically refreshed every 10 minutes)

About weather observations | Map of Canberra area stations | Latest observations for Canberra area | Other Formats
Station Details ID: 071032 Name: THREDBO AWS Lat: -36.49 Lon: 148.29 Height: 1957.0 m
Data from the previous 72 hours. | See also: Recent months at Thredbo Top Station
Date/Time
EST
Tmp

°C
App
Tmp
°C
Dew
Point
°C
Rel
Hum
%
Delta-T

°C
Wind Press
QNH
hPa
Press
MSL
hPa
Rain
since
9 am
mm
Dir
 
Spd
km/h
Gust
km/h
Spd
kts
Gust
kts
31/11:00pm 1.4 -16.3 -3.6 69 1.9 W 80 106 43 57 1000.8 1005.2 0.0
31/10:30pm 1.8 -16.8 -3.9 66 2.2 W 85 106 46 57 1001.3 - 0.0
31/10:00pm 1.8 -15.9 -4.1 65 2.3 W 80 106 43 57 1001.9 1006.3 0.0
31/09:30pm 1.9 -16.2 -4.2 64 2.3 WNW 82 104 44 56 1002.2 - 0.0
31/09:00pm 2.0 -17.1 -4.3 63 2.4 WNW 87 113 47 61 1002.9 1007.3 0.0
31/08:30pm 2.0 -17.0 -3.9 65 2.3 WNW 87 109 47 59 1003.2 - 0.0
31/08:00pm 1.9 -18.6 -3.4 68 2.1 WNW 95 117 51 63 1003.7 1008.1 0.0
31/07:30pm 1.9 -19.4 -2.6 72 1.7 W 100 130 54 70 - - 0.0
31/07:00pm 1.7 -21.2 -1.4 80 1.2 W 109 132 59 71 1003.0 1007.4 0.0
31/06:32pm 1.7 -21.5 -0.9 83 1.0 WNW 111 130 60 70 1002.6 - 0.0
31/06:30pm 1.7 -21.9 -1.0 82 1.1 WNW 113 130 61 70 1002.4 - 0.0
31/06:00pm 1.5 -20.9 -0.6 86 0.8 WNW 107 135 58 73 1002.3 1006.7 0.0
31/05:30pm 1.4 -20.0 -0.5 87 0.8 WNW 102 124 55 67 1001.9 - 0.0
31/05:00pm 1.2 -20.2 -0.6 88 0.7 WNW 102 130 55 70 1002.0 1006.4 0.0
31/04:30pm 1.3 -20.5 -0.5 88 0.7 WNW 104 130 56 70 1002.1 - 0.0
31/04:00pm 1.3 -21.9 -0.6 87 0.8 WNW 111 141 60 76 1002.2 1006.6 0.0
31/03:30pm 1.2 -23.4 -0.3 90 0.6 WNW 119 148 64 80 1002.2 - 0.0
31/03:00pm 1.4 -23.5 -0.8 85 0.9 WNW 120 141 65 76 1002.6 1007.0 0.0
31/02:30pm 1.4 -22.2 -1.0 84 0.9 WNW 113 135 61 73 1003.0 - 0.0
31/02:00pm 0.9 -21.2 0.0 94 0.4 WNW 106 141 57 76 1002.7 1007.1 0.0
31/01:30pm 0.6 -21.1 0.3 98 0.1 WNW 104 130 56 70 1003.8 - 0.0
31/01:00pm 0.6 -20.4 -0.3 94 0.4 WNW 100 122 54 66 1005.0 1009.5 0.0
31/12:30pm 0.2 -20.4 0.1 99 0.0 WNW 98 120 53 65 1006.2 - 0.0
31/12:00pm 0.0 -20.2 -0.1 99 0.0 WNW 96 124 52 67 1007.5 1012.1 0.0
31/11:30am 0.1 -19.9 0.0 99 0.0 WNW 95 113 51 61 1008.3 - 0.0
31/11:00am 0.0 -19.7 -0.1 99 0.0 WNW 93 113 50 61 1009.1 1013.7 0.0
31/10:30am -0.1 -19.8 -0.2 99 0.0 WNW 93 115 50 62 1009.4 - 0.0
31/10:00am -0.1 -18.3 -0.2 99 0.0 WNW 85 106 46 57 1009.9 1014.5 0.0
31/09:30am 0.3 -18.6 0.2 99 0.0 WNW 89 107 48 58 1010.2 - 0.0
31/09:01am 0.3 -17.8 0.2 99 0.0 WNW 85 104 46 56 1010.7 - 0.0
31/09:00am 0.3 -17.8 0.2 99 0.0 WNW 85 102 46 55 1010.7 1015.4 13.8
31/08:52am 0.3 -17.8 0.2 99 0.0 WNW 85 104 46 56 1010.8 - 13.8
31/08:30am 0.4 -18.1 0.3 99 0.0 WNW 87 104 47 56 1011.0 - 13.8
31/08:00am 0.7 -18.1 0.6 99 0.0 WNW 89 111 48 60 1011.1 1015.9 13.8
31/07:30am 0.8 -17.6 0.7 99 0.0 WNW 87 109 47 59 1011.4 - 13.8
31/07:00am 0.9 -17.1 0.8 99 0.0 WNW 85 106 46 57 1011.4 1016.1 13.8
31/06:30am 1.0 -17.4 0.9 99 0.0 WNW 87 113 47 61 1011.4 - 13.8
31/06:00am 1.1 -16.5 1.0 99 0.0 WNW 83 106 45 57 1011.4 1016.1 13.8
31/05:30am 1.1 -15.9 1.0 99 0.0 WNW 80 100 43 54 1011.4 - 13.8
31/05:00am 0.9 -15.0 0.8 99 0.0 WNW 74 98 40 53 1011.7 1016.4 13.8
31/04:30am 0.8 -15.5 0.7 99 0.0 WNW 76 111 41 60 1012.3 - 13.8
31/04:00am 1.1 -14.4 1.0 99 0.0 WNW 72 98 39 53 1012.3 1017.0 13.8
31/03:35am 1.1 -13.9 0.4 95 0.3 WNW 69 93 37 50 1012.4 - 13.8
31/03:32am 1.0 -14.0 0.6 97 0.2 WNW 69 80 37 43 1012.8 - 13.8
31/03:30am 0.9 -17.5 0.8 99 0.0 WNW 87 109 47 59 1013.1 - 13.8
31/03:00am 1.0 -13.6 0.9 99 0.0 W 67 98 36 53 1013.1 1017.9 13.6
31/02:30am 0.9 -14.6 0.8 99 0.0 W 72 95 39 51 1013.4 - 13.6
31/02:00am 1.0 -14.9 0.9 99 0.0 W 74 102 40 55 1013.4 1018.2 13.6
31/01:50am 0.7 -15.6 0.6 99 0.0 WNW 76 95 41 51 1013.5 - 13.6
31/01:46am 0.7 -15.6 0.6 99 0.0 WNW 76 85 41 46 1013.6 - 13.6
31/01:33am 0.8 -11.7 0.7 99 0.0 W 56 78 30 42 1013.6 - 13.6
31/01:30am 0.8 -11.7 0.7 99 0.0 W 56 70 30 38 1013.6 - 13.6
31/01:27am 1.2 -10.9 1.1 99 0.0 W 54 67 29 36 1013.6 - 13.4
31/01:00am 1.1 -15.9 1.0 99 0.0 W 80 98 43 53 1013.5 1018.3 13.0
31/12:30am 1.0 -16.0 0.9 99 0.0 W 80 102 43 55 1014.0 - 12.4
31/12:15am 1.0 -14.5 0.9 99 0.0 W 72 93 39 50 1013.9 - 12.4
31/12:13am 0.9 -14.3 0.8 99 0.0 W 70 83 38 45 1013.9 - 12.4
31/12:00am 0.9 -18.3 0.8 99 0.0 W 91 120 49 65 1014.0 1018.8 12.4
 
Date/Time
EST
Tmp

°C
App
Tmp
°C
Dew
Point
°C
Rel
Hum
%
Delta-T

°C
Wind Press
QNH
hPa
Press
MSL
hPa
Rain
since
9 am
mm
Dir
 
Spd
km/h
Gust
km/h
Spd
kts
Gust
kts
30/11:55pm 1.1 -17.6 1.0 99 0.0 W 89 107 48 58 1014.1 - 12.4
30/11:49pm 1.3 -13.6 1.2 99 0.0 W 69 106 37 57 1013.9 - 12.4
30/11:47pm 1.4 -12.7 1.3 99 0.0 W 65 87 35 47 1013.6 - 12.2
30/11:46pm 1.2 -12.2 1.1 99 0.0 W 61 70 33 38 1013.9 - 12.2
30/11:30pm 1.3 -17.0 1.2 99 0.0 W 87 107 47 58 1014.4 - 12.2
30/11:16pm 1.2 -17.9 1.1 99 0.0 W 91 109 49 59 1014.6 - 12.2
30/11:00pm 1.0 -14.1 0.9 99 0.0 W 70 93 38 50 1014.2 1019.0 12.2
30/10:59pm 1.2 -14.3 1.1 99 0.0 W 72 93 39 50 1014.3 - 12.2
30/10:30pm 1.2 -17.9 1.1 99 0.0 W 91 113 49 61 1014.6 - 11.6
30/10:00pm 1.3 -15.3 1.2 99 0.0 W 78 107 42 58 1014.4 1019.3 11.2
30/09:30pm 1.1 -14.8 1.0 99 0.0 W 74 102 40 55 1014.4 - 11.0
30/09:00pm 1.0 -14.9 0.9 99 0.0 W 74 100 40 54 1015.0 1019.9 10.8
30/08:30pm 1.1 -16.3 1.0 99 0.0 W 82 109 44 59 1014.8 - 10.8
30/08:16pm 1.1 -15.9 1.0 99 0.0 W 80 117 43 63 1014.7 - 10.8
30/08:00pm 1.0 -15.3 0.9 99 0.0 W 76 98 41 53 1014.8 1019.6 10.8
30/07:30pm 1.1 -16.5 1.0 99 0.0 W 83 111 45 60 1014.7 - 10.8
30/07:00pm 1.1 -15.9 1.0 99 0.0 W 80 113 43 61 1014.8 1019.6 10.6
30/06:47pm 1.3 -15.7 1.2 99 0.0 W 80 115 43 62 1014.6 - 10.4
30/06:30pm 0.9 -14.6 0.8 99 0.0 W 72 96 39 52 1014.2 - 9.8
30/06:00pm 0.9 -15.0 0.8 99 0.0 W 74 113 40 61 1014.6 1019.4 9.4
30/05:30pm 1.1 -15.9 1.0 99 0.0 W 80 109 43 59 1014.2 - 9.4
30/05:00pm 1.2 -16.4 1.1 99 0.0 W 83 111 45 60 1014.0 1018.8 9.2
30/04:30pm 1.4 -14.1 1.3 99 0.0 W 72 102 39 55 1013.6 - 8.4
30/04:00pm 1.4 -14.8 1.3 99 0.0 W 76 100 41 54 1013.4 1018.2 8.0
30/03:30pm 1.3 -13.8 1.2 99 0.0 W 70 104 38 56 1013.0 - 7.2
30/03:00pm 1.3 -14.9 1.2 99 0.0 W 76 107 41 58 1013.0 1017.7 6.6
30/02:30pm 1.5 -13.4 1.4 99 0.0 W 69 91 37 49 1012.7 - 6.0
30/02:00pm 1.2 -13.3 1.1 99 0.0 W 67 89 36 48 1012.7 1017.5 5.2
30/01:30pm 1.3 -13.6 1.2 99 0.0 W 69 91 37 49 1013.1 - 4.4
30/01:00pm 1.3 -12.5 1.2 99 0.0 W 63 89 34 48 1013.3 1018.1 3.6
30/12:30pm 1.3 -13.2 1.2 99 0.0 W 67 85 36 46 1013.9 - 2.8
30/12:00pm 1.4 -13.7 1.3 99 0.0 W 70 91 38 49 1013.8 1018.6 2.2
30/11:30am 1.3 -13.6 1.2 99 0.0 W 69 91 37 49 1014.1 - 1.8
30/11:00am 1.3 -13.6 1.2 99 0.0 W 69 89 37 48 1014.4 1019.3 1.4
30/10:30am 1.4 -13.5 1.3 99 0.0 W 69 91 37 49 1014.1 - 1.0
30/10:00am 1.3 -13.2 1.2 99 0.0 W 67 89 36 48 1014.2 1019.0 0.6
30/09:30am 1.4 -13.7 1.3 99 0.0 W 70 98 38 53 1014.1 - 0.2
30/09:00am 1.4 -13.5 1.3 99 0.0 W 69 89 37 48 1013.9 1018.7 13.2
30/08:30am 1.3 -13.2 1.2 99 0.0 W 67 87 36 47 1013.4 - 12.8
30/08:00am 1.3 -13.6 1.2 99 0.0 W 69 87 37 47 1013.2 1018.0 12.4
30/07:30am 1.2 -15.8 1.1 99 0.0 W 80 98 43 53 1013.1 - 12.2
30/07:06am 1.2 -15.8 1.1 99 0.0 W 80 100 43 54 1013.0 - 12.0
30/07:00am 1.2 -15.8 1.1 99 0.0 W 80 96 43 52 1013.1 1017.9 12.0
30/06:32am 1.1 -15.2 1.0 99 0.0 W 76 95 41 51 1012.8 - 11.6
30/06:30am 1.2 -15.4 1.1 99 0.0 W 78 95 42 51 1012.8 - 11.4
30/06:00am 1.4 -14.4 1.3 99 0.0 W 74 93 40 50 1012.6 1017.4 11.0
30/05:30am 1.3 -14.9 1.2 99 0.0 W 76 96 41 52 1012.5 - 10.8
30/05:04am 1.3 -13.6 1.2 99 0.0 W 69 87 37 47 1012.8 - 10.6
30/05:00am 1.1 -13.8 1.0 99 0.0 W 69 83 37 45 1012.7 1017.5 10.6
30/04:30am 1.3 -12.9 1.2 99 0.0 W 65 93 35 50 1013.0 - 10.4
30/04:00am 1.2 -12.6 1.1 99 0.0 W 63 83 34 45 1012.7 1017.5 10.0
30/03:30am 1.1 -13.5 1.0 99 0.0 W 67 91 36 49 1013.0 - 9.2
30/03:00am 0.9 -13.7 0.8 99 0.0 W 67 85 36 46 1013.2 1018.0 8.4
30/02:30am 1.0 -14.0 0.9 99 0.0 W 69 93 37 50 1013.6 - 7.4
30/02:00am 1.0 -13.6 0.9 99 0.0 W 67 93 36 50 1013.9 1018.7 6.4
30/01:30am 1.0 -12.1 0.9 99 0.0 W 59 80 32 43 1014.1 - 5.8
30/01:00am 0.8 -11.3 0.7 99 0.0 W 54 72 29 39 1013.9 1018.7 4.2
30/12:30am 0.9 -13.7 0.8 99 0.0 W 67 96 36 52 1014.0 - 3.2
30/12:19am 0.9 -12.6 0.8 99 0.0 W 61 80 33 43 1014.2 - 3.2
30/12:00am 0.7 -12.0 0.6 99 0.0 W 57 72 31 39 1014.3 1019.2 2.6
 
Date/Time
EST
Tmp

°C
App
Tmp
°C
Dew
Point
°C
Rel
Hum
%
Delta-T

°C
Wind Press
QNH
hPa
Press
MSL
hPa
Rain
since
9 am
mm
Dir
 
Spd
km/h
Gust
km/h
Spd
kts
Gust
kts
29/11:30pm 0.6 -13.3 0.5 99 0.0 W 63 82 34 44 1014.4 - 2.4
29/11:20pm 0.4 -12.7 0.3 99 0.0 W 59 85 32 46 1014.3 - 2.2
29/11:00pm 0.2 -13.0 0.1 99 0.0 W 59 76 32 41 1014.4 1019.3 1.2
29/10:31pm 0.0 -13.2 -0.1 99 0.0 W 59 78 32 42 1014.8 - 0.2
29/10:30pm 0.0 -13.2 -0.1 99 0.0 W 59 76 32 41 1014.8 - 0.2
29/10:16pm 0.0 -15.1 -0.1 99 0.0 W 69 87 37 47 1014.6 - 0.0
29/10:00pm -0.1 -16.2 -0.2 99 0.0 W 74 91 40 49 1014.6 1019.4 0.0
29/09:49pm -0.2 -15.3 -0.3 99 0.0 W 69 87 37 47 1014.6 - 0.0
29/09:30pm -0.3 -15.6 -0.4 99 0.0 W 70 87 38 47 1014.6 - 0.0
29/09:03pm -0.4 -16.9 -0.5 99 0.0 W 76 95 41 51 1014.4 - 0.0
29/09:00pm -0.4 -17.3 -0.5 99 0.0 W 78 95 42 51 1014.4 1019.3 0.0
29/08:34pm -0.4 -17.7 -0.5 99 0.0 W 80 104 43 56 1014.7 - 0.0
29/08:30pm -0.4 -18.2 -0.5 99 0.0 WSW 83 98 45 53 1014.8 - 0.0
29/08:05pm -0.4 -17.7 -0.5 99 0.0 WSW 80 98 43 53 1015.1 - 0.0
29/08:00pm -0.5 -17.8 -0.6 99 0.0 W 80 96 43 52 1015.0 1019.9 0.0
29/07:30pm -0.5 -17.0 -0.6 99 0.0 W 76 95 41 51 1014.8 - 0.0
29/07:00pm -0.2 -15.9 -0.3 99 0.0 W 72 91 39 49 1015.1 1020.0 0.0
29/06:30pm -0.1 -16.6 -0.2 99 0.0 W 76 96 41 52 1014.4 - 0.0
29/06:02pm -0.2 -14.6 -0.3 99 0.0 W 65 83 35 45 1014.4 - 0.0
29/06:00pm -0.2 -15.0 -0.3 99 0.0 W 67 83 36 45 1014.3 1019.2 0.0
29/05:31pm -0.2 -15.0 -0.3 99 0.0 WSW 67 85 36 46 1014.3 - 0.0
29/05:30pm -0.2 -15.3 -0.3 99 0.0 WSW 69 85 37 46 1014.4 - 0.0
29/05:00pm -0.5 -15.7 -0.6 99 0.0 W 69 82 37 44 1013.8 1018.6 0.0
29/04:55pm -0.4 -15.2 -0.5 99 0.0 WSW 67 78 36 42 1013.6 - 0.0
29/04:46pm -0.5 -15.7 -0.6 99 0.0 WNW 69 82 37 44 1013.8 - 0.0
29/04:30pm -0.5 -15.3 -0.6 99 0.0 WSW 67 89 36 48 1013.9 - 0.0
29/04:00pm -0.7 -16.9 -0.8 99 0.0 WSW 74 100 40 54 1013.5 1018.3 0.0
29/03:30pm -0.8 -16.2 -1.1 98 0.1 WSW 70 89 38 48 1012.8 - 0.0
29/03:08pm -0.9 -17.1 -1.0 99 0.0 WSW 74 93 40 50 1013.3 - 0.0
29/03:00pm -0.9 -17.5 -1.2 98 0.1 WSW 76 93 41 50 1013.2 1018.0 0.0
29/02:30pm -0.8 -18.6 -1.4 96 0.2 WSW 82 100 44 54 1012.7 - 0.0
29/02:00pm -0.6 -19.0 -1.6 93 0.3 WSW 85 109 46 59 1012.7 1017.5 0.0
29/01:30pm -0.5 -17.9 -1.9 90 0.5 WSW 80 100 43 54 1013.0 - 0.0
29/01:00pm -0.7 -18.2 -2.7 86 0.7 WSW 80 100 43 54 1013.1 1017.9 0.0
29/12:32pm -0.9 -18.8 -2.6 88 0.6 WSW 82 100 44 54 1013.1 - 0.0
29/12:30pm -0.7 -18.8 -4.0 78 1.1 W 82 98 44 53 1013.1 - 0.0
29/12:05pm -1.1 -19.1 -1.5 97 0.1 WSW 83 102 45 55 1013.9 - 0.0
29/12:00pm -0.8 -19.1 -1.2 97 0.1 WSW 85 100 46 54 1014.2 1019.0 0.0
29/11:30am -0.9 -18.6 -1.0 99 0.0 WSW 82 100 44 54 1015.4 - 0.0
29/11:01am -0.7 -16.5 -0.8 99 0.0 WSW 72 91 39 49 1015.7 - 0.0
29/11:00am -1.0 -17.2 -1.1 99 0.0 WSW 74 91 40 49 1015.8 1020.7 0.0
29/10:30am -0.9 -13.9 -1.2 98 0.1 W 57 78 31 42 1015.9 - 0.0
29/10:23am -1.0 -13.4 -1.1 99 0.0 W 54 72 29 39 1016.2 - 0.0
29/10:00am -0.9 -12.5 -1.0 99 0.0 W 50 63 27 34 1016.3 1021.2 0.0
29/09:58am -0.7 -11.5 -0.8 99 0.0 W 46 54 25 29 1016.6 - 0.0
29/09:44am -0.6 -15.0 -0.7 99 0.0 W 65 83 35 45 1015.5 - 0.0
29/09:30am -0.6 -15.8 -0.7 99 0.0 W 69 85 37 46 1015.2 - 0.0
29/09:00am -0.1 -15.2 -0.2 99 0.0 W 69 87 37 47 1015.7 1020.6 0.0
29/08:30am 0.1 -15.6 -0.3 97 0.2 W 72 96 39 52 1015.9 - 0.0
29/08:03am 0.3 -15.4 -0.5 94 0.3 W 72 91 39 49 1015.7 - 0.0
29/08:00am 0.3 -15.4 -0.4 95 0.3 W 72 89 39 48 1015.8 1020.7 0.0
29/07:33am 0.5 -15.7 -0.8 91 0.5 W 74 93 40 50 1015.5 - 0.0
29/07:30am 0.5 -16.1 -0.9 90 0.6 W 76 93 41 50 1015.6 - 0.0
29/07:22am 0.3 -15.8 -0.7 93 0.4 W 74 93 40 50 1015.5 - 0.0
29/07:00am -0.1 -17.0 -0.8 95 0.3 W 78 95 42 51 1015.4 1020.2 0.0
29/06:50am 0.3 -15.8 -0.5 94 0.3 W 74 95 40 51 1015.5 - 0.0
29/06:30am 0.0 -16.1 -0.7 95 0.3 W 74 89 40 48 1015.2 - 0.0
29/06:12am -0.2 -15.6 -0.9 95 0.3 WSW 70 89 38 48 1015.1 - 0.0
29/06:00am -0.2 -15.6 -0.8 96 0.2 WSW 70 83 38 45 1015.0 1019.9 0.0
29/05:36am -0.2 -15.6 -0.8 96 0.2 WSW 70 89 38 48 1014.9 - 0.0
29/05:30am -0.1 -15.3 -0.8 95 0.3 WSW 69 82 37 44 1015.0 - 0.0
29/05:00am -0.1 -14.6 -0.9 94 0.3 WSW 65 80 35 43 1015.2 1020.1 0.0
29/04:30am -0.3 -14.4 -1.3 93 0.4 WSW 63 76 34 41 1015.6 - 0.0
29/04:09am -0.2 -14.0 -1.5 91 0.5 W 61 80 33 43 1015.6 - 0.0
29/04:00am -0.2 -14.0 -1.5 91 0.5 W 61 76 33 41 1015.6 1020.5 0.0
29/03:30am 0.1 -13.7 -1.5 89 0.6 W 61 74 33 40 1015.5 - 0.0
29/03:00am -0.2 -14.4 -1.5 91 0.5 W 63 78 34 42 1015.8 1020.7 0.0
29/02:30am 0.1 -14.4 -1.3 90 0.5 WSW 65 85 35 46 1015.8 - 0.0
29/02:17am 0.1 -14.0 -1.3 90 0.5 W 63 83 34 45 1016.0 - 0.0
29/02:00am 0.4 -13.7 -1.2 89 0.6 W 63 78 34 42 1016.0 1020.9 0.0
29/01:30am 0.0 -14.9 -1.6 89 0.6 W 67 80 36 43 1016.5 - 0.0
29/01:00am 0.1 -14.8 -1.0 92 0.4 W 67 82 36 44 1016.5 1021.4 0.0
29/12:31am -0.2 -16.4 -1.3 92 0.4 W 74 93 40 50 1016.6 - 0.0
29/12:30am -0.2 -16.8 -1.3 92 0.4 W 76 93 41 50 1016.6 - 0.0
29/12:16am -0.1 -17.9 -1.4 91 0.5 W 82 100 44 54 1016.7 - 0.0
29/12:00am 0.1 -16.5 -1.5 89 0.6 W 76 91 41 49 1016.6 1021.5 0.0
 
Date/Time
EST
Tmp

°C
App
Tmp
°C
Dew
Point
°C
Rel
Hum
%
Delta-T

°C
Wind Press
QNH
hPa
Press
MSL
hPa
Rain
since
9 am
mm
Dir
 
Spd
km/h
Gust
km/h
Spd
kts
Gust
kts
28/11:30pm -0.1 -16.7 -0.9 94 0.3 W 76 95 41 51 1017.2 - 0.0

Latest Capital City Observations: Canberra | Sydney | Melbourne | Brisbane | Adelaide | Perth | Hobart | Darwin

Other Formats:

Comma delimited format used in spreadsheet applications
http://www.bom.gov.au/fwo/IDN60903/IDN60903.95909.axf

JavaScript Object Notation format (JSON) in row-major order
http://www.bom.gov.au/fwo/IDN60903/IDN60903.95909.json